createdAt,value
2018-04-16T00:00:11.627Z,92.80
2018-04-16T00:05:15.197Z,93.00
2018-04-16T00:10:18.387Z,93.00
2018-04-16T00:15:22.323Z,93.20
2018-04-16T00:20:26.639Z,93.10
2018-04-16T00:25:29.848Z,93.20
2018-04-16T00:30:33.452Z,93.40
2018-04-16T00:35:42.102Z,93.60
2018-04-16T00:40:50.739Z,93.60
2018-04-16T00:45:59.605Z,93.50
2018-04-16T00:51:09.523Z,93.50
2018-04-16T00:56:18.995Z,93.50
2018-04-16T01:01:27.712Z,93.80
2018-04-16T01:06:37.211Z,93.80
2018-04-16T01:11:45.860Z,93.90
2018-04-16T01:16:55.357Z,94.10
2018-04-16T01:22:04.352Z,93.80
2018-04-16T01:27:13.815Z,94.40
2018-04-16T01:32:22.935Z,93.70
2018-04-16T01:37:31.643Z,93.70
2018-04-16T01:42:40.444Z,94.00
2018-04-16T01:47:49.484Z,94.00
2018-04-16T01:52:58.993Z,94.40
2018-04-16T01:58:07.665Z,94.00
2018-04-16T02:03:17.495Z,93.90
2018-04-16T02:08:26.402Z,93.90
2018-04-16T02:13:36.243Z,93.90
2018-04-16T02:18:44.985Z,94.20
2018-04-16T02:23:53.547Z,94.40
2018-04-16T02:29:02.690Z,94.50
2018-04-16T02:34:12.341Z,95.20
2018-04-16T02:39:21.843Z,95.60
2018-04-16T02:44:30.561Z,95.00
2018-04-16T02:49:39.285Z,95.20
2018-04-16T02:54:48.371Z,95.40
2018-04-16T02:59:56.904Z,95.20
2018-04-16T03:05:06.081Z,95.30
2018-04-16T03:10:14.656Z,95.50
2018-04-16T03:15:23.608Z,95.40
2018-04-16T03:20:33.440Z,95.00
2018-04-16T03:25:42.066Z,95.30
2018-04-16T03:30:51.580Z,95.30
2018-04-16T03:36:00.180Z,95.10
2018-04-16T03:41:08.847Z,95.30
2018-04-16T03:52:13.674Z,95.30
2018-04-16T03:57:16.783Z,95.60
2018-04-16T04:02:19.916Z,95.70
2018-04-16T04:07:23.088Z,95.60
2018-04-16T04:12:26.283Z,95.80
2018-04-16T04:17:29.509Z,95.80
2018-04-16T04:22:51.707Z,95.70
2018-04-16T04:28:12.701Z,95.90
2018-04-16T04:33:15.919Z,96.00
2018-04-16T04:38:19.455Z,95.90
2018-04-16T04:43:22.676Z,95.90
2018-04-16T04:53:30.250Z,96.10
2018-04-16T04:58:33.771Z,96.10
2018-04-16T05:03:36.951Z,96.10
2018-04-16T05:08:40.834Z,96.00
2018-04-16T05:13:45.107Z,95.80
2018-04-16T05:18:48.174Z,95.70
2018-04-16T05:23:52.011Z,95.70
2018-04-16T05:28:55.110Z,95.30
2018-04-16T05:33:58.202Z,94.70
2018-04-16T05:39:01.287Z,94.50
2018-04-16T05:44:05.891Z,93.90
2018-04-16T05:49:08.968Z,93.80
2018-04-16T06:04:21.342Z,90.00
2018-04-16T06:09:25.605Z,89.40
2018-04-16T06:19:33.106Z,88.10
2018-04-16T06:24:37.729Z,87.90
2018-04-16T06:29:40.809Z,83.40
2018-04-16T06:39:48.350Z,77.30
2018-04-16T06:44:52.952Z,76.40
2018-04-16T06:55:00.882Z,79.70
2018-04-16T07:00:04.029Z,81.20
2018-04-16T07:05:07.128Z,79.90
2018-04-16T07:10:11.000Z,78.50
2018-04-16T07:15:14.817Z,80.20
2018-04-16T07:20:17.900Z,79.70
2018-04-16T07:25:23.035Z,79.30
2018-04-16T07:30:26.809Z,80.00
2018-04-16T07:35:29.886Z,80.40
2018-04-16T07:40:34.346Z,80.90
2018-04-16T07:45:37.825Z,82.00
2018-04-16T07:50:41.622Z,82.40
2018-04-16T08:00:50.009Z,78.50
2018-04-16T08:05:54.233Z,77.10
2018-04-16T08:16:02.194Z,77.90
2018-04-16T08:21:06.158Z,78.60
2018-04-16T08:26:10.983Z,75.70
2018-04-16T08:31:14.074Z,73.70
2018-04-16T08:36:18.906Z,69.70
2018-04-16T08:41:22.456Z,64.70
2018-04-16T08:51:30.810Z,66.90
2018-04-16T09:01:39.523Z,68.60
2018-04-16T09:06:44.103Z,68.90
2018-04-16T09:11:47.641Z,71.20
2018-04-16T09:21:56.448Z,69.00
2018-04-16T09:27:00.320Z,69.40
2018-04-16T09:32:03.397Z,68.70
2018-04-16T09:37:07.618Z,67.80
2018-04-16T09:42:11.462Z,64.60
2018-04-16T09:47:15.306Z,62.60
2018-04-16T09:52:19.533Z,64.90
2018-04-16T09:57:23.026Z,63.50
2018-04-16T10:02:27.610Z,65.90
2018-04-16T10:12:35.890Z,64.60
2018-04-16T10:22:45.739Z,62.30
2018-04-16T10:27:48.834Z,63.20
2018-04-16T10:32:53.047Z,61.90
2018-04-16T10:37:56.890Z,61.80
2018-04-16T10:43:01.110Z,61.80
2018-04-16T10:48:04.205Z,60.50
2018-04-16T10:53:07.289Z,62.30
2018-04-16T11:03:15.953Z,64.20
2018-04-16T11:08:19.496Z,65.50
2018-04-16T11:13:23.698Z,64.70
2018-04-16T11:18:27.931Z,63.30
2018-04-16T11:23:31.010Z,61.60
2018-04-16T11:28:34.934Z,59.60
2018-04-16T11:33:39.119Z,60.60
2018-04-16T11:38:42.978Z,58.40
2018-04-16T11:48:50.910Z,60.70
2018-04-16T11:58:58.431Z,64.80
2018-04-16T12:09:06.673Z,63.50
2018-04-16T12:14:10.159Z,62.30
2018-04-16T12:19:14.020Z,62.50
2018-04-16T12:24:17.130Z,62.10
2018-04-16T12:29:20.281Z,62.20
2018-04-16T12:34:24.118Z,63.80
2018-04-16T12:39:28.338Z,61.90
2018-04-16T12:44:32.177Z,59.70
2018-04-16T12:54:40.666Z,61.40
2018-04-16T13:04:48.202Z,60.80
2018-04-16T13:09:51.286Z,61.90
2018-04-16T13:14:55.134Z,61.30
2018-04-16T13:20:00.238Z,61.50
2018-04-16T13:25:04.128Z,59.60
2018-04-16T13:30:07.618Z,59.50
2018-04-16T13:35:11.106Z,59.30
2018-04-16T13:40:14.577Z,57.80
2018-04-16T13:45:18.054Z,57.60
2018-04-16T13:50:22.274Z,57.70
2018-04-16T14:00:30.214Z,57.90
2018-04-16T14:10:39.294Z,59.60
2018-04-16T14:15:42.371Z,60.20
2018-04-16T14:20:45.487Z,59.80
2018-04-16T14:25:48.580Z,59.40
2018-04-16T14:30:51.654Z,59.50
2018-04-16T14:35:55.912Z,58.70
2018-04-16T14:41:00.104Z,57.50
2018-04-16T14:46:03.970Z,57.30
2018-04-16T14:51:08.185Z,57.80
2018-04-16T14:56:11.691Z,58.80
2018-04-16T15:01:15.535Z,58.30
2018-04-16T15:06:19.382Z,58.80
2018-04-16T15:16:26.883Z,58.20
2018-04-16T15:21:29.986Z,58.30
2018-04-16T15:26:33.062Z,57.50
2018-04-16T15:31:36.559Z,58.20
2018-04-16T15:36:40.421Z,57.60
2018-04-16T15:41:43.508Z,57.60
2018-04-16T15:46:47.745Z,57.80
2018-04-16T15:51:51.587Z,57.30
2018-04-16T15:56:54.671Z,56.70
2018-04-16T16:01:57.763Z,56.70
2018-04-16T16:07:00.847Z,56.30
2018-04-16T16:17:09.494Z,57.10
2018-04-16T16:22:13.364Z,57.20
2018-04-16T16:32:20.890Z,57.90
2018-04-16T16:42:29.919Z,59.30
2018-04-16T16:47:33.767Z,59.00
2018-04-16T16:52:36.846Z,58.10
2018-04-16T16:57:39.938Z,58.00
2018-04-16T17:07:48.239Z,57.70
2018-04-16T17:17:55.754Z,59.20
2018-04-16T17:22:58.855Z,58.90
2018-04-16T17:28:02.056Z,59.30
2018-04-16T17:33:05.929Z,60.30
2018-04-16T17:38:17.822Z,61.40
2018-04-16T17:43:21.454Z,62.10
2018-04-16T17:48:26.971Z,62.30
2018-04-16T17:53:30.883Z,62.70
2018-04-16T17:58:35.888Z,64.80
2018-04-16T18:03:39.947Z,65.00
2018-04-16T18:08:43.179Z,66.20
2018-04-16T18:13:48.320Z,68.30
2018-04-16T18:18:52.467Z,68.10
2018-04-16T18:23:57.959Z,68.90
2018-04-16T18:29:01.031Z,69.90
2018-04-16T18:34:04.884Z,71.30
2018-04-16T18:39:12.754Z,71.10
2018-04-16T18:44:15.978Z,72.80
2018-04-16T18:49:19.483Z,74.40
2018-04-16T18:54:23.515Z,74.30
2018-04-16T18:59:27.701Z,75.80
2018-04-16T19:04:30.902Z,77.20
2018-04-16T19:09:34.101Z,78.10
2018-04-16T19:14:37.367Z,78.70
2018-04-16T19:19:40.643Z,78.70
2018-04-16T19:24:45.420Z,80.90
2018-04-16T19:29:49.001Z,79.70
2018-04-16T19:34:58.343Z,80.10
2018-04-16T19:40:01.541Z,80.10
2018-04-16T19:45:05.120Z,81.70
2018-04-16T19:50:09.125Z,82.40
2018-04-16T19:55:12.270Z,83.40
2018-04-16T20:00:15.904Z,83.70
2018-04-16T20:05:19.476Z,83.70
2018-04-16T20:10:24.582Z,85.10
2018-04-16T20:15:27.769Z,83.90
2018-04-16T20:20:31.710Z,84.80
2018-04-16T20:25:34.888Z,85.00
2018-04-16T20:30:38.948Z,85.80
2018-04-16T20:35:42.912Z,86.50
2018-04-16T20:40:46.223Z,86.50
2018-04-16T20:45:49.421Z,86.90
2018-04-16T20:50:53.342Z,88.00
2018-04-16T20:55:57.295Z,88.50
2018-04-16T21:01:00.468Z,88.20
2018-04-16T21:06:20.906Z,88.10
2018-04-16T21:11:25.230Z,88.00
2018-04-16T21:16:29.883Z,88.00
2018-04-16T21:21:33.058Z,88.10
2018-04-16T21:26:36.243Z,88.10
2018-04-16T21:31:39.427Z,89.40
2018-04-16T21:36:42.638Z,89.30
2018-04-16T21:42:01.207Z,89.50
2018-04-16T21:47:04.421Z,88.90
2018-04-16T21:52:07.546Z,89.40
2018-04-16T21:57:11.118Z,89.40
2018-04-16T22:02:14.978Z,90.60
2018-04-16T22:07:18.066Z,90.10
2018-04-16T22:12:21.147Z,90.30
2018-04-16T22:17:24.991Z,91.30
2018-04-16T22:22:28.090Z,90.50
2018-04-16T22:27:32.306Z,90.50
2018-04-16T22:32:35.403Z,90.80
2018-04-16T22:37:38.590Z,91.00
2018-04-16T22:42:41.813Z,90.80
2018-04-16T22:47:44.939Z,91.00
2018-04-16T22:52:48.880Z,91.10
2018-04-16T22:57:52.844Z,91.50
2018-04-16T23:02:55.995Z,91.80
2018-04-16T23:07:59.177Z,92.00
2018-04-16T23:13:02.319Z,91.90
2018-04-16T23:18:05.487Z,92.00
2018-04-16T23:23:08.671Z,92.10
2018-04-16T23:28:12.232Z,92.20
2018-04-16T23:33:15.403Z,92.50
2018-04-16T23:38:18.563Z,92.40
2018-04-16T23:43:22.863Z,92.40
2018-04-16T23:48:26.468Z,92.60
2018-04-16T23:53:30.435Z,92.60
2018-04-16T23:58:33.583Z,92.70
